• Join FlightAware (Why Join?)
  • Login
  • US Flag 
11:48PM EDT


 

Airport Tracker/Info


-or-


 

Live Flight TrackerFlight Track Log ✈ SKW4473 ✈ 23-Apr-2013 ✈ KHLN - KSLC

Flight Track Log - Related Links

Times and Time Zones

All times are in EDT time to prevent confusion due to time zone crossing. See the SKW4473 flight status page for this flight to view local times or setup timezone preferences in your user account.

Time Position Orientation Groundspeed Altitude Reporting Facility
EDT Latitude Longitude Course Direction KTS MPH feet Rate Location/Type
03:00PM 46.0924 -111.4591 145° Southeast  Level FlightAware Approximate
03:01PM 46.0072 -111.3739 145° Southeast  Level FlightAware Approximate
03:01PM 46.5686 -111.7172 104° East 294 338 14,500  Level Salt Lake Center
03:02PM 45.9221 -111.2887 145° Southeast  Level FlightAware Approximate
03:02PM 46.5192 -111.6158 125° Southeast 325 374 17,100  Level Salt Lake Center
03:03PM 45.8370 -111.2036 145° Southeast  Level FlightAware Approximate
03:03PM 46.4214 -111.6089 177° South 339 390 18,700  Level Salt Lake Center
03:04PM 45.7460 -111.1625 193° South  Level FlightAware Approximate
03:04PM 46.3219 -111.6181 184° South 357 411 20,600  Level Salt Lake Center
03:05PM 45.6506 -111.2200 204° Southwest  Level FlightAware Approximate
03:05PM 46.2208 -111.6278 184° South 364 419 22,400  Level Salt Lake Center
03:06PM 46.1161 -111.6375 184° South 376 433 23,800 1,320 Climbing Salt Lake Center
03:07PM 46.0083 -111.6469 183° South 388 447 25,200 1,200 Climbing Salt Lake Center
03:08PM 45.8750 -111.6597 184° South 402 463 26,400 1,020 Climbing Salt Lake Center
03:09PM 45.7608 -111.6697 183° South 413 475 27,300 1,020 Climbing Salt Lake Center
03:10PM 45.6447 -111.6794 183° South 421 484 28,500 960 Climbing Salt Lake Center
03:11PM 45.5275 -111.6894 183° South 424 488 29,400 780 Climbing Salt Lake Center
03:12PM 45.4083 -111.7000 184° South 429 494 30,200 600 Climbing Salt Lake Center
03:13PM 45.2875 -111.7117 184° South 434 499 30,700 360 Climbing Salt Lake Center
03:14PM 45.1383 -111.7244 183° South 446 513 31,000 120 Climbing Salt Lake Center
03:15PM 45.0094 -111.7364 184° South 463 533 31,000  Level Salt Lake Center
03:16PM 44.8822 -111.7472 183° South 476 548 31,000  Level Salt Lake Center
03:17PM 44.7350 -111.7617 184° South 478 550 31,000  Level Salt Lake Center
03:18PM 44.6106 -111.7708 183° South 475 547 31,000  Level Salt Lake Center
03:19PM 44.4647 -111.7847 184° South 476 548 31,000  Level Salt Lake Center
03:20PM 44.3389 -111.7958 184° South 477 549 31,000  Level Salt Lake Center
03:22PM 44.1928 -111.8100 184° South 475 547 31,000  Level Salt Lake Center
03:23PM 44.0669 -111.8206 183° South 474 545 31,000  Level Salt Lake Center
03:24PM 43.9200 -111.8344 184° South 473 544 31,000  Level Salt Lake Center
03:25PM 43.7944 -111.8453 184° South 473 544 31,000  Level Salt Lake Center
03:26PM 43.6472 -111.8572 183° South 474 545 31,000  Level Salt Lake Center
03:27PM 43.5206 -111.8686 184° South 475 547 31,000  Level Salt Lake Center
03:28PM 43.3736 -111.8797 183° South 473 544 31,000  Level Salt Lake Center
03:29PM 43.2469 -111.8914 184° South 476 548 31,000  Level Salt Lake Center
03:30PM 43.1206 -111.9003 183° South 476 548 31,000  Level Salt Lake Center
03:31PM 42.9733 -111.9122 183° South 475 547 31,000 -480 Level Salt Lake Center
03:32PM 42.8447 -111.9231 184° South 481 554 30,100 -1,020 Descending Salt Lake Center
03:33PM 42.6919 -111.9367 184° South 490 564 29,000 -540 Descending Salt Lake Center
03:34PM 42.5614 -111.9475 183° South 491 565 29,000  Level Salt Lake Center
03:35PM 42.4239 -111.9583 183° South 477 549 29,000  Level Salt Lake Center
03:36PM 42.2758 -111.9728 184° South 477 549 29,000  Level Salt Lake Center
03:37PM 42.1492 -111.9814 183° South 477 549 29,000 -900 Level Salt Lake Center
03:38PM 42.0200 -111.9928 184° South 484 557 27,200 -2,280 Descending Salt Lake Center
03:39PM 41.8764 -112.0042 183° South 469 540 24,300 -2,700 Descending Salt Lake Center
03:40PM 41.7497 -112.0158 184° South 433 498 21,700 -2,460 Descending Salt Lake Center
03:41PM 41.6986 -112.0164 180° South 418 481 20,700 -1,980 Descending Salt Lake Center
03:41PM 41.6369 -112.0361 193° South 410 472 19,700 -1,680 Descending Salt Lake Center
03:42PM 41.5881 -112.0344 179° South 404 465 19,000 -1,260 Descending Salt Lake Center
03:42PM 41.5211 -112.0547 193° South 388 447 18,400 -1,020 Descending Salt Lake Center
03:43PM 41.4825 -112.0561 182° South 386 444 18,000 -780 Descending Salt Lake Center
03:43PM 41.4181 -112.0747 192° South 378 435 17,600 -840 Descending Salt Lake Center
03:44PM 41.3708 -112.0800 185° South 375 432 17,200 -1,020 Descending Salt Lake Center
03:44PM 41.3161 -112.0964 193° South 372 428 16,600 -1,020 Descending Salt Lake Center
03:45PM 41.2700 -112.1031 186° South 370 426 16,200 -1,020 Descending Salt Lake Center
03:45PM 41.2089 -112.1197 192° South 364 419 15,600 -1,020 Descending Salt Lake Center
03:46PM 41.1728 -112.1247 186° South 360 414 15,200 -1,020 Descending Salt Lake Center
03:46PM 41.1108 -112.1400 191° South 357 411 14,600 -1,020 Descending Salt Lake Center
03:47PM 41.0669 -112.1436 184° South 355 409 14,100 -1,020 Descending Salt Lake Center
03:47PM 41.0142 -112.1339 172° South 352 405 13,600 -1,260 Descending Salt Lake Center
03:48PM 40.9642 -112.1244 172° South 349 402 12,800 -2,040 Descending Salt Lake Center
03:48PM 40.9128 -112.1117 169° South 345 397 11,500 -1,920 Descending Salt Lake Center
03:49PM 40.8903 -112.1097 176° South 319 367 11,100 -540 Descending Salt Lake Center
03:49PM 40.8375 -112.1033 175° South 273 314 11,000 -120 Descending Salt Lake Center
03:50PM 40.8114 -112.1025 179° South 253 291 11,000 -540 Level Salt Lake Center
03:50PM 40.7644 -112.0933 172° South 248 285 10,500 -1,020 Descending Salt Lake Center
03:51PM 40.7431 -112.0944 182° South 248 285 10,000 -1,380 Descending Salt Lake Center
03:51PM 40.6975 -112.0803 167° South 246 283 9,100 -1,020 Descending Salt Lake Center
03:52PM 40.6778 -112.0797 179° South 240 276 9,000 -120 Descending Salt Lake Center
03:52PM 40.6392 -112.0522 152° Southeast 217 250 9,000 -120 Level Salt Lake Center
03:53PM 40.6369 -112.0369 101° East 215 247 8,900 -1,200 Descending Salt Lake Center
03:53PM 40.6717 -112.0011 38° Northeast 205 236 7,800 -1,680 Descending Salt Lake Center
03:54PM 40.6853 -111.9978 11° North 195 224 7,200 -2,280 Descending Salt Lake Center